Terminal Aerodrome Forecast
Issued by NWS

Home | Current Version | Previous Version | Text Only | Print | Product List | Glossary On
Versions: 1 2 3 4 5 6 7 8 9 10 11 12 13 14
385
FTUS43 KMQT 240537
TAFSAW
TAF
KSAW 240537Z 2406/2506 01004KT P6SM OVC025
     FM240800 02007KT P6SM OVC015
     FM241000 03009KT P6SM VCSH OVC015
     FM241200 03010KT 5SM -SN OVC008
     FM241500 04016G27KT 1SM -SN BLSN VV008=

USA.gov is the U.S. government's official web portal to all federal, state and local government web resources and services.